createdAt,value
2019-05-12T00:01:35.895Z,95.10
2019-05-12T00:04:02.964Z,94.30
2019-05-12T00:06:30.197Z,94.40
2019-05-12T00:08:57.990Z,94.60
2019-05-12T00:11:28.896Z,94.20
2019-05-12T00:13:58.508Z,94.50
2019-05-12T00:16:25.410Z,94.40
2019-05-12T00:18:52.932Z,94.80
2019-05-12T00:21:20.198Z,95.20
2019-05-12T00:24:07.907Z,95.50
2019-05-12T00:26:34.674Z,96.00
2019-05-12T00:29:01.669Z,96.00
2019-05-12T00:31:28.840Z,96.00
2019-05-12T00:33:58.562Z,96.20
2019-05-12T00:36:25.435Z,96.30
2019-05-12T00:38:52.557Z,96.40
2019-05-12T00:41:20.816Z,96.50
2019-05-12T00:43:51.412Z,96.50
2019-05-12T00:46:18.909Z,96.60
2019-05-12T00:48:47.790Z,96.60
2019-05-12T00:51:15.095Z,96.60
2019-05-12T00:53:43.484Z,96.60
2019-05-12T00:56:10.767Z,96.50
2019-05-12T00:58:38.311Z,96.50
2019-05-12T01:01:07.987Z,96.20
2019-05-12T01:03:34.364Z,96.20
2019-05-12T01:06:01.476Z,96.00
2019-05-12T01:08:29.037Z,95.90
2019-05-12T01:10:58.362Z,95.60
2019-05-12T01:13:27.743Z,95.70
2019-05-12T01:15:55.207Z,96.00
2019-05-12T01:18:22.472Z,95.80
2019-05-12T01:20:49.721Z,95.80
2019-05-12T01:23:18.661Z,95.60
2019-05-12T01:25:47.802Z,95.50
2019-05-12T01:28:15.077Z,95.20
2019-05-12T01:30:42.344Z,95.00
2019-05-12T01:33:09.472Z,95.10
2019-05-12T01:35:38.715Z,94.80
2019-05-12T01:38:08.016Z,94.90
2019-05-12T01:40:35.077Z,94.80
2019-05-12T01:43:02.057Z,94.70
2019-05-12T01:45:29.290Z,94.80
2019-05-12T01:47:59.110Z,95.00
2019-05-12T01:50:28.312Z,95.00
2019-05-12T01:52:58.390Z,94.90
2019-05-12T01:55:25.118Z,94.80
2019-05-12T01:57:52.330Z,94.70
2019-05-12T02:00:19.828Z,94.50
2019-05-12T02:02:48.110Z,94.60
2019-05-12T02:05:15.322Z,94.40
2019-05-12T02:07:52.918Z,94.30
2019-05-12T02:10:22.057Z,94.00
2019-05-12T02:12:49.311Z,94.00
2019-05-12T02:15:18.411Z,94.00
2019-05-12T02:17:47.969Z,94.10
2019-05-12T02:20:17.911Z,94.00
2019-05-12T02:22:44.886Z,93.90
2019-05-12T02:25:12.486Z,93.90
2019-05-12T02:27:39.900Z,93.80
2019-05-12T02:30:09.887Z,93.70
2019-05-12T02:32:48.448Z,93.60
2019-05-12T02:35:07.537Z,93.50
2019-05-12T02:37:35.695Z,93.60
2019-05-12T02:40:05.119Z,93.40
2019-05-12T02:42:34.873Z,93.30
2019-05-12T02:45:05.239Z,93.30
2019-05-12T02:47:30.762Z,93.40
2019-05-12T02:49:58.439Z,93.70
2019-05-12T02:52:25.927Z,93.60
2019-05-12T02:54:59.575Z,93.60
2019-05-12T02:57:25.558Z,93.50
2019-05-12T02:59:54.148Z,93.20
2019-05-12T03:02:24.653Z,93.00
2019-05-12T03:04:54.783Z,93.00
2019-05-12T03:07:25.445Z,93.00
2019-05-12T03:09:55.110Z,93.10
2019-05-12T03:12:25.607Z,93.50
2019-05-12T03:14:54.257Z,93.80
2019-05-12T03:17:20.550Z,93.90
2019-05-12T03:19:47.459Z,94.20
2019-05-12T03:22:15.821Z,94.30
2019-05-12T03:24:44.914Z,94.90
2019-05-12T03:27:14.561Z,95.00
2019-05-12T03:29:44.801Z,95.00
2019-05-12T03:32:11.280Z,94.80
2019-05-12T03:34:38.994Z,94.50
2019-05-12T03:37:07.993Z,94.50
2019-05-12T03:39:35.454Z,94.70
2019-05-12T03:42:05.137Z,94.70
2019-05-12T03:44:31.598Z,94.80
2019-05-12T03:46:58.671Z,94.90
2019-05-12T03:49:25.743Z,94.90
2019-05-12T03:51:54.334Z,94.90
2019-05-12T03:54:24.427Z,95.30
2019-05-12T03:56:50.788Z,95.70
2019-05-12T03:59:18.288Z,95.90
2019-05-12T04:01:45.544Z,95.80
2019-05-12T04:04:15.348Z,96.00
2019-05-12T04:06:45.007Z,96.10
2019-05-12T04:09:10.979Z,96.10
2019-05-12T04:11:38.422Z,95.90
2019-05-12T04:14:06.108Z,95.70
2019-05-12T04:16:36.371Z,95.40
2019-05-12T04:19:05.324Z,94.90
2019-05-12T04:21:34.879Z,94.90
2019-05-12T04:24:00.911Z,95.20
2019-05-12T04:26:28.546Z,95.20
2019-05-12T04:28:55.370Z,95.20
2019-05-12T04:31:24.952Z,95.60
2019-05-12T04:33:54.660Z,95.80
2019-05-12T04:36:20.941Z,96.00
2019-05-12T04:38:48.012Z,95.90
2019-05-12T04:41:19.599Z,95.50
2019-05-12T04:43:44.878Z,95.60
2019-05-12T04:46:14.454Z,95.90
2019-05-12T04:48:44.872Z,96.10
2019-05-12T04:51:09.882Z,95.70
2019-05-12T04:53:37.135Z,94.80
2019-05-12T04:56:15.214Z,94.80
2019-05-12T04:58:36.753Z,95.00
2019-05-12T05:01:06.464Z,94.20
2019-05-12T05:03:34.902Z,94.00
2019-05-12T05:06:04.236Z,94.50
2019-05-12T05:08:30.888Z,94.30
2019-05-12T05:10:58.244Z,93.00
2019-05-12T05:13:25.632Z,93.60
2019-05-12T05:15:54.893Z,92.60
2019-05-12T05:18:23.911Z,93.00
2019-05-12T05:20:50.801Z,92.00
2019-05-12T05:23:18.138Z,91.20
2019-05-12T05:25:45.662Z,91.00
2019-05-12T05:28:14.569Z,91.20
2019-05-12T05:30:43.708Z,90.50
2019-05-12T05:33:10.983Z,89.80
2019-05-12T05:35:39.846Z,90.80
2019-05-12T05:38:10.825Z,91.00
2019-05-12T05:40:36.480Z,91.50
2019-05-12T05:43:12.694Z,91.50
2019-05-12T05:45:35.216Z,91.50
2019-05-12T05:48:07.455Z,90.70
2019-05-12T05:50:31.721Z,87.60
2019-05-12T05:52:58.739Z,86.80
2019-05-12T05:55:25.637Z,89.60
2019-05-12T05:57:53.582Z,90.50
2019-05-12T06:00:26.038Z,84.10
2019-05-12T06:02:50.881Z,82.80
2019-05-12T06:05:19.860Z,84.70
2019-05-12T06:07:47.176Z,85.90
2019-05-12T06:10:14.778Z,81.60
2019-05-12T06:12:48.709Z,81.10
2019-05-12T06:15:13.387Z,81.60
2019-05-12T06:17:40.664Z,80.00
2019-05-12T06:20:07.943Z,78.60
2019-05-12T06:22:35.231Z,77.10
2019-05-12T06:25:04.879Z,78.60
2019-05-12T06:27:33.624Z,79.50
2019-05-12T06:30:02.798Z,79.10
2019-05-12T06:32:33.544Z,77.90
2019-05-12T06:35:02.233Z,78.80
2019-05-12T06:37:29.602Z,79.60
2019-05-12T06:40:00.505Z,78.80
2019-05-12T06:42:26.605Z,78.80
2019-05-12T06:44:57.145Z,79.30
2019-05-12T06:47:24.043Z,78.30
2019-05-12T06:49:54.789Z,78.30
2019-05-12T06:52:20.357Z,78.50
2019-05-12T06:54:51.269Z,78.30
2019-05-12T06:57:22.114Z,76.60
2019-05-12T06:59:50.936Z,76.70
2019-05-12T07:02:14.552Z,77.70
2019-05-12T07:04:49.746Z,77.40
2019-05-12T07:07:14.279Z,77.20
2019-05-12T07:09:53.659Z,77.30
2019-05-12T07:12:13.582Z,76.00
2019-05-12T07:14:40.726Z,76.00
2019-05-12T07:17:24.600Z,76.00
2019-05-12T07:19:54.788Z,76.20
2019-05-12T07:22:23.371Z,76.10
2019-05-12T07:24:52.810Z,74.70
2019-05-12T07:27:35.293Z,74.50
2019-05-12T07:29:49.042Z,74.10
2019-05-12T07:32:21.581Z,73.90
2019-05-12T07:34:45.672Z,73.80
2019-05-12T07:37:15.167Z,73.60
2019-05-12T07:39:45.388Z,74.60
2019-05-12T07:42:13.374Z,73.20
2019-05-12T07:44:44.064Z,72.80
2019-05-12T07:47:11.106Z,72.90
2019-05-12T07:49:38.782Z,72.50
2019-05-12T07:52:06.158Z,72.00
2019-05-12T07:54:37.367Z,71.70
2019-05-12T07:57:05.336Z,71.00
2019-05-12T07:59:38.793Z,70.90
2019-05-12T08:01:59.874Z,68.70
2019-05-12T08:04:31.714Z,69.20
2019-05-12T08:06:56.439Z,66.70
2019-05-12T08:09:32.152Z,67.40
2019-05-12T08:11:54.037Z,66.40
2019-05-12T08:14:29.247Z,67.30
2019-05-12T08:16:54.447Z,66.80
2019-05-12T08:19:28.052Z,64.60
2019-05-12T08:21:50.920Z,64.00
2019-05-12T08:24:18.114Z,62.80
2019-05-12T08:26:49.119Z,61.60
2019-05-12T08:29:17.042Z,59.20
2019-05-12T08:31:44.080Z,59.30
2019-05-12T08:34:13.679Z,60.40
2019-05-12T08:36:45.008Z,57.70
2019-05-12T08:39:11.910Z,52.60
2019-05-12T08:41:39.825Z,52.40
2019-05-12T08:44:07.122Z,50.40
2019-05-12T08:46:34.688Z,51.90
2019-05-12T08:49:03.047Z,49.10
2019-05-12T08:51:30.829Z,47.80
2019-05-12T08:54:02.403Z,50.20
2019-05-12T08:56:27.852Z,50.30
2019-05-12T08:58:55.106Z,50.90
2019-05-12T09:01:26.526Z,51.90
2019-05-12T09:03:53.312Z,52.70
2019-05-12T09:06:23.596Z,54.20
2019-05-12T09:08:54.065Z,53.00
2019-05-12T09:11:21.319Z,52.20
2019-05-12T09:13:52.673Z,50.30
2019-05-12T09:16:18.130Z,50.70
2019-05-12T09:18:45.422Z,50.00
2019-05-12T09:21:14.105Z,50.60
2019-05-12T09:23:44.989Z,49.50
2019-05-12T09:26:13.013Z,46.40
2019-05-12T09:28:47.412Z,44.80
2019-05-12T09:31:09.720Z,45.10
2019-05-12T09:33:37.312Z,42.30
2019-05-12T09:36:04.464Z,39.50
2019-05-12T09:38:41.029Z,39.60
2019-05-12T09:41:07.921Z,38.90
2019-05-12T09:43:40.259Z,39.50
2019-05-12T09:46:05.116Z,39.90
2019-05-12T09:48:33.488Z,40.00
2019-05-12T09:51:02.670Z,40.50
2019-05-12T09:53:30.278Z,41.80
2019-05-12T09:55:58.578Z,42.40
2019-05-12T09:58:27.880Z,44.40
2019-05-12T10:00:54.903Z,45.80
2019-05-12T10:03:24.194Z,46.30
2019-05-12T10:05:53.417Z,46.20
2019-05-12T10:08:20.907Z,45.20
2019-05-12T10:10:48.136Z,45.90
2019-05-12T10:13:15.394Z,45.80
2019-05-12T10:15:44.787Z,46.90
2019-05-12T10:18:14.308Z,46.80
2019-05-12T10:20:41.077Z,47.40
2019-05-12T10:23:10.206Z,46.70
2019-05-12T10:25:37.564Z,46.00
2019-05-12T10:28:13.927Z,46.40
2019-05-12T10:30:38.009Z,44.80
2019-05-12T10:33:05.144Z,44.70
2019-05-12T10:35:35.206Z,45.00
2019-05-12T10:38:08.622Z,44.40
2019-05-12T10:40:31.018Z,42.80
2019-05-12T10:42:58.618Z,40.90
2019-05-12T10:45:28.254Z,41.00
2019-05-12T10:47:55.441Z,41.40
2019-05-12T10:50:23.488Z,41.70
2019-05-12T10:52:50.836Z,39.90
2019-05-12T10:55:18.368Z,39.90
2019-05-12T10:57:47.229Z,39.80
2019-05-12T11:00:19.679Z,40.90
2019-05-12T11:02:45.375Z,37.50
2019-05-12T11:05:21.414Z,38.70
2019-05-12T11:07:43.586Z,38.00
2019-05-12T11:10:16.451Z,36.10
2019-05-12T11:12:40.430Z,35.30
2019-05-12T11:15:08.510Z,33.20
2019-05-12T11:17:54.104Z,32.70
2019-05-12T11:20:21.872Z,31.80
2019-05-12T11:22:49.149Z,29.90
2019-05-12T11:25:16.583Z,30.90
2019-05-12T11:27:49.877Z,32.60
2019-05-12T11:30:17.099Z,33.00
2019-05-12T11:32:44.521Z,31.80
2019-05-12T11:35:13.851Z,30.50
2019-05-12T11:37:40.847Z,29.90
2019-05-12T11:40:08.110Z,28.90
2019-05-12T11:42:35.479Z,29.20
2019-05-12T11:45:03.224Z,29.20
2019-05-12T11:47:30.131Z,29.60
2019-05-12T11:49:58.600Z,29.50
2019-05-12T11:52:26.838Z,29.10
2019-05-12T11:54:54.478Z,29.80
2019-05-12T11:57:26.199Z,28.70
2019-05-12T12:00:00.952Z,28.90
2019-05-12T12:02:26.250Z,28.10
2019-05-12T12:04:50.638Z,28.80
2019-05-12T12:07:17.667Z,28.10
2019-05-12T12:09:49.634Z,27.70
2019-05-12T12:12:14.695Z,27.60
2019-05-12T12:14:48.465Z,28.90
2019-05-12T12:17:13.505Z,29.60
2019-05-12T12:19:44.630Z,31.40
2019-05-12T12:22:09.488Z,32.40
2019-05-12T12:24:38.355Z,30.90
2019-05-12T12:27:09.197Z,29.20
2019-05-12T12:29:36.364Z,30.10
2019-05-12T12:32:03.575Z,28.20
2019-05-12T12:34:33.169Z,27.80
2019-05-12T12:37:00.332Z,29.00
2019-05-12T12:39:27.677Z,26.90
2019-05-12T12:42:00.150Z,26.80
2019-05-12T12:44:24.291Z,27.40
2019-05-12T12:46:59.786Z,26.30
2019-05-12T12:49:23.048Z,26.80
2019-05-12T12:51:51.178Z,25.70
2019-05-12T12:54:18.191Z,26.00
2019-05-12T12:56:45.551Z,26.20
2019-05-12T12:59:15.686Z,26.60
2019-05-12T13:01:44.265Z,27.00
2019-05-12T13:04:13.291Z,27.50
2019-05-12T13:06:40.955Z,28.90
2019-05-12T13:09:18.232Z,29.10
2019-05-12T13:11:38.820Z,28.00
2019-05-12T13:14:06.944Z,28.30
2019-05-12T13:16:34.556Z,28.60
2019-05-12T13:19:06.145Z,28.10
2019-05-12T13:21:30.567Z,29.30
2019-05-12T13:23:57.952Z,29.30
2019-05-12T13:26:25.114Z,28.30
2019-05-12T13:28:53.557Z,29.20
2019-05-12T13:31:24.183Z,28.20
2019-05-12T13:33:54.925Z,27.70
2019-05-12T13:36:21.032Z,27.50
2019-05-12T13:38:48.187Z,27.00
2019-05-12T13:41:19.791Z,27.10
2019-05-12T13:43:45.139Z,26.90
2019-05-12T13:46:12.333Z,28.20
2019-05-12T13:48:39.723Z,27.80
2019-05-12T13:51:12.333Z,27.00
2019-05-12T13:53:40.399Z,26.10
2019-05-12T13:56:04.939Z,27.40
2019-05-12T13:58:34.519Z,27.40
2019-05-12T14:01:13.226Z,28.50
2019-05-12T14:03:33.595Z,27.10
2019-05-12T14:06:00.744Z,27.80
2019-05-12T14:08:27.934Z,27.30
2019-05-12T14:10:59.368Z,26.40
2019-05-12T14:13:25.038Z,27.30
2019-05-12T14:15:53.679Z,27.40
2019-05-12T14:18:21.009Z,27.30
2019-05-12T14:20:50.842Z,27.00
2019-05-12T14:23:17.691Z,27.40
2019-05-12T14:25:44.825Z,27.30
2019-05-12T14:28:15.992Z,27.10
2019-05-12T14:30:49.795Z,27.90
2019-05-12T14:33:10.988Z,27.90
2019-05-12T14:35:41.218Z,27.90
2019-05-12T14:38:07.239Z,27.80
2019-05-12T14:40:34.996Z,27.70
2019-05-12T14:43:03.706Z,26.70
2019-05-12T14:45:33.151Z,26.80
2019-05-12T14:48:05.895Z,27.90
2019-05-12T14:50:30.579Z,27.30
2019-05-12T14:52:59.752Z,27.20
2019-05-12T14:55:27.326Z,27.30
2019-05-12T14:57:54.306Z,28.30
2019-05-12T15:00:24.051Z,30.10
2019-05-12T15:02:50.724Z,30.60
2019-05-12T15:05:17.864Z,30.10
2019-05-12T15:07:51.191Z,28.80
2019-05-12T15:10:14.585Z,28.30
2019-05-12T15:12:44.218Z,28.40
2019-05-12T15:15:15.662Z,27.80
2019-05-12T15:17:40.184Z,28.40
2019-05-12T15:20:10.656Z,28.60
2019-05-12T15:22:37.154Z,28.80
2019-05-12T15:25:05.567Z,27.90
2019-05-12T15:27:44.110Z,28.20
2019-05-12T15:30:04.191Z,28.50
2019-05-12T15:32:33.959Z,29.60
2019-05-12T15:35:01.754Z,31.10
2019-05-12T15:37:35.030Z,32.10
2019-05-12T15:39:59.135Z,32.20
2019-05-12T15:42:26.798Z,33.30
2019-05-12T15:44:55.234Z,34.80
2019-05-12T15:47:29.581Z,35.40
2019-05-12T15:49:54.857Z,36.30
2019-05-12T15:52:24.587Z,37.40
2019-05-12T15:54:53.956Z,38.00
2019-05-12T15:57:21.156Z,39.40
2019-05-12T15:59:48.651Z,38.90
2019-05-12T16:02:16.994Z,38.50
2019-05-12T16:04:48.206Z,37.30
2019-05-12T16:07:14.278Z,37.20
2019-05-12T16:09:45.431Z,37.40
2019-05-12T16:12:19.979Z,38.50
2019-05-12T16:14:41.218Z,39.20
2019-05-12T16:17:08.616Z,39.80
2019-05-12T16:19:35.730Z,40.30
2019-05-12T16:22:03.650Z,40.40
2019-05-12T16:24:30.782Z,39.10
2019-05-12T16:26:58.251Z,38.20
2019-05-12T16:29:25.592Z,37.60
2019-05-12T16:31:53.678Z,38.10
2019-05-12T16:34:20.963Z,38.40
2019-05-12T16:36:54.882Z,38.30
2019-05-12T16:39:23.922Z,38.00
2019-05-12T16:41:51.533Z,38.10
2019-05-12T16:44:23.141Z,38.60
2019-05-12T16:46:48.065Z,38.50
2019-05-12T16:49:15.552Z,39.70
2019-05-12T16:51:43.750Z,39.80
2019-05-12T16:54:12.580Z,40.10
2019-05-12T16:56:39.657Z,40.70
2019-05-12T16:59:15.353Z,40.60
2019-05-12T17:01:36.237Z,41.50
2019-05-12T17:04:04.586Z,42.50
2019-05-12T17:06:34.988Z,42.90
2019-05-12T17:09:03.381Z,43.80
2019-05-12T17:11:37.332Z,44.70
2019-05-12T17:14:05.131Z,45.00
2019-05-12T17:16:33.703Z,46.00
2019-05-12T17:19:06.246Z,45.90
2019-05-12T17:21:30.709Z,46.20
2019-05-12T17:23:58.139Z,46.80
2019-05-12T17:26:25.516Z,47.80
2019-05-12T17:28:53.800Z,47.20
2019-05-12T17:31:21.491Z,47.60
2019-05-12T17:33:48.964Z,49.00
2019-05-12T17:36:17.982Z,48.90
2019-05-12T17:38:45.043Z,48.50
2019-05-12T17:41:16.483Z,48.90
2019-05-12T17:43:52.066Z,49.90
2019-05-12T17:46:17.905Z,50.60
2019-05-12T17:48:44.759Z,50.90
2019-05-12T17:51:13.655Z,51.10
2019-05-12T17:53:43.398Z,51.40
2019-05-12T17:56:10.915Z,51.70
2019-05-12T17:58:45.249Z,52.10
2019-05-12T18:01:10.889Z,52.50
2019-05-12T18:03:39.271Z,52.30
2019-05-12T18:06:06.871Z,52.40
2019-05-12T18:08:36.474Z,52.70
2019-05-12T18:11:03.722Z,52.40
2019-05-12T18:13:31.507Z,52.80
2019-05-12T18:15:58.582Z,53.40
2019-05-12T18:18:32.788Z,53.50
2019-05-12T18:20:55.803Z,53.50
2019-05-12T18:26:11.820Z,53.80
2019-05-12T18:28:37.615Z,54.00
2019-05-12T18:31:04.674Z,54.30
2019-05-12T18:33:34.878Z,54.90
2019-05-12T18:36:03.719Z,54.20
2019-05-12T18:38:31.972Z,54.70
2019-05-12T18:41:00.129Z,55.50
2019-05-12T18:43:28.293Z,55.80
2019-05-12T18:46:04.822Z,55.90
2019-05-12T18:48:25.295Z,56.10
2019-05-12T18:50:52.702Z,57.00
2019-05-12T18:53:27.254Z,57.00
2019-05-12T18:55:48.779Z,58.20
2019-05-12T18:58:21.686Z,57.60
2019-05-12T19:00:45.901Z,58.40
2019-05-12T19:03:13.993Z,59.00
2019-05-12T19:05:43.321Z,59.20
2019-05-12T19:08:10.516Z,59.20
2019-05-12T19:10:38.554Z,59.90
2019-05-12T19:13:06.949Z,59.90
2019-05-12T19:15:34.420Z,60.70
2019-05-12T19:18:03.762Z,61.20
2019-05-12T19:20:36.285Z,61.90
2019-05-12T19:23:03.443Z,62.00
2019-05-12T19:25:35.307Z,62.50
2019-05-12T19:28:05.993Z,63.00
2019-05-12T19:30:28.330Z,62.80
2019-05-12T19:33:00.072Z,62.90
2019-05-12T19:35:25.934Z,63.30
2019-05-12T19:37:53.844Z,63.60
2019-05-12T19:40:21.383Z,63.80
2019-05-12T19:42:53.808Z,64.20
2019-05-12T19:45:21.628Z,64.70
2019-05-12T19:47:49.228Z,64.50
2019-05-12T19:50:18.661Z,64.40
2019-05-12T19:52:45.962Z,64.20
2019-05-12T19:55:14.020Z,64.50
2019-05-12T19:57:44.160Z,64.40
2019-05-12T20:00:13.370Z,64.40
2019-05-12T20:02:39.886Z,64.70
2019-05-12T20:05:07.041Z,64.50
2019-05-12T20:07:35.460Z,65.00
2019-05-12T20:10:04.669Z,65.60
2019-05-12T20:12:34.299Z,65.70
2019-05-12T20:15:03.960Z,66.00
2019-05-12T20:17:33.894Z,66.40
2019-05-12T20:20:00.803Z,66.00
2019-05-12T20:22:28.438Z,66.10
2019-05-12T20:24:55.478Z,66.40
2019-05-12T20:27:24.686Z,66.20
2019-05-12T20:29:53.973Z,66.70
2019-05-12T20:32:21.155Z,67.00
2019-05-12T20:34:52.130Z,67.30
2019-05-12T20:37:18.150Z,67.50
2019-05-12T20:39:51.168Z,67.40
2019-05-12T20:42:16.770Z,67.50
2019-05-12T20:44:44.088Z,67.80
2019-05-12T20:47:11.091Z,68.30
2019-05-12T20:49:45.022Z,68.90
2019-05-12T20:52:09.711Z,69.00
2019-05-12T20:54:36.999Z,69.50
2019-05-12T20:57:08.149Z,69.60
2019-05-12T20:59:33.889Z,69.90
2019-05-12T21:02:03.415Z,70.20
2019-05-12T21:04:31.888Z,70.40
2019-05-12T21:06:59.324Z,70.80
2019-05-12T21:09:26.582Z,71.30
2019-05-12T21:11:54.638Z,71.60
2019-05-12T21:14:23.999Z,71.70
2019-05-12T21:16:53.842Z,71.80
2019-05-12T21:19:23.800Z,72.10
2019-05-12T21:21:50.016Z,72.40
2019-05-12T21:24:17.525Z,72.50
2019-05-12T21:26:44.903Z,72.80
2019-05-12T21:29:13.777Z,72.90
2019-05-12T21:31:41.236Z,73.00
2019-05-12T21:34:13.064Z,73.40
2019-05-12T21:36:37.655Z,73.60
2019-05-12T21:39:10.471Z,74.00
2019-05-12T21:41:40.735Z,74.10
2019-05-12T21:44:09.097Z,74.20
2019-05-12T21:46:38.098Z,74.50
2019-05-12T21:49:10.671Z,74.60
2019-05-12T21:51:36.561Z,74.80
2019-05-12T21:54:06.335Z,75.00
2019-05-12T21:56:37.851Z,75.30
2019-05-12T21:59:03.749Z,75.30
2019-05-12T22:01:35.067Z,75.70
2019-05-12T22:04:02.469Z,75.80
2019-05-12T22:06:29.737Z,75.90
2019-05-12T22:09:02.768Z,76.00
2019-05-12T22:11:31.412Z,76.30
2019-05-12T22:14:00.204Z,76.50
2019-05-12T22:16:29.775Z,76.70
2019-05-12T22:18:59.487Z,76.90
2019-05-12T22:21:26.914Z,77.10
2019-05-12T22:23:56.334Z,77.30
2019-05-12T22:26:23.887Z,77.40
2019-05-12T22:28:53.210Z,77.70
2019-05-12T22:31:20.273Z,78.00
2019-05-12T22:33:52.213Z,78.10
2019-05-12T22:36:25.668Z,78.10
2019-05-12T22:38:45.862Z,78.20
2019-05-12T22:41:13.723Z,78.40
2019-05-12T22:43:45.025Z,78.60
2019-05-12T22:46:10.779Z,78.80
2019-05-12T22:48:40.566Z,79.00
2019-05-12T22:51:17.497Z,79.20
2019-05-12T22:53:36.198Z,79.50
2019-05-12T22:56:12.023Z,79.80
2019-05-12T22:58:36.572Z,79.90
2019-05-12T23:01:05.320Z,80.20
2019-05-12T23:03:32.696Z,80.20
2019-05-12T23:06:01.651Z,80.40
2019-05-12T23:08:29.182Z,80.40
2019-05-12T23:10:56.197Z,80.50
2019-05-12T23:13:23.904Z,80.50
2019-05-12T23:15:51.346Z,80.50
2019-05-12T23:18:25.224Z,80.50
2019-05-12T23:20:48.516Z,80.70
2019-05-12T23:23:18.791Z,80.90
2019-05-12T23:25:44.552Z,81.20
2019-05-12T23:28:12.100Z,81.20
2019-05-12T23:30:43.839Z,81.30
2019-05-12T23:33:08.792Z,81.10
2019-05-12T23:35:39.422Z,81.50
2019-05-12T23:38:10.417Z,81.80
2019-05-12T23:40:35.770Z,81.90
2019-05-12T23:43:04.031Z,82.40
2019-05-12T23:45:33.899Z,82.50
2019-05-12T23:48:00.727Z,82.40
2019-05-12T23:50:27.731Z,82.40
2019-05-12T23:52:54.749Z,82.60
2019-05-12T23:55:24.276Z,82.80
2019-05-12T23:57:54.979Z,82.70
